Terminal Aerodrome Forecast
Issued by NWS Burlington, VT

Home | Current Version | Previous Version | Text Only | Print | Product List | Glossary On
Versions: 1 2 3 4 5 6 7 8 9 10 11 12 13 14 15 16 17 18 19 20
000
FTUS41 KBTV 251730
TAFBTV
TAF
KBTV 251730Z 2518/2618 23007KT P6SM VCSH SCT070 OVC100
     FM252000 20007KT P6SM VCSH SCT035 OVC080
      TEMPO 2520/2524 3SM TSRA BR BKN030CB
     FM260100 18005KT P6SM SCT130
     FM261300 24007KT P6SM SCT070
     FM261700 29009KT P6SM SCT090=

USA.gov is the U.S. government's official web portal to all federal, state and local government web resources and services.